sensor_id;sensor_type;location;lat;lon;timestamp;pressure;altitude;pressure_sealevel;temperature;humidity
53546;BME280;39432;51.902;10.844;2023-05-11T00:01:09;99383.72;;;14.44;100.00
53546;BME280;39432;51.902;10.844;2023-05-11T00:03:39;99398.63;;;14.04;100.00
53546;BME280;39432;51.902;10.844;2023-05-11T00:06:09;99409.91;;;14.03;100.00
53546;BME280;39432;51.902;10.844;2023-05-11T00:08:39;99426.31;;;14.18;100.00
53546;BME280;39432;51.902;10.844;2023-05-11T00:11:08;99433.59;;;13.98;100.00
53546;BME280;39432;51.902;10.844;2023-05-11T00:13:38;99442.09;;;14.41;100.00
53546;BME280;39432;51.902;10.844;2023-05-11T00:16:10;99444.78;;;14.57;100.00
53546;BME280;39432;51.902;10.844;2023-05-11T00:18:40;99434.28;;;14.88;100.00
53546;BME280;39432;51.902;10.844;2023-05-11T00:21:10;99430.34;;;14.70;100.00
53546;BME280;39432;51.902;10.844;2023-05-11T00:23:40;99421.59;;;14.63;100.00
53546;BME280;39432;51.902;10.844;2023-05-11T00:26:10;99424.13;;;14.54;100.00
53546;BME280;39432;51.902;10.844;2023-05-11T00:28:41;99429.47;;;14.74;100.00
53546;BME280;39432;51.902;10.844;2023-05-11T00:31:14;99428.09;;;14.38;100.00
53546;BME280;39432;51.902;10.844;2023-05-11T00:33:43;99428.09;;;14.72;100.00
53546;BME280;39432;51.902;10.844;2023-05-11T00:36:16;99417.81;;;15.12;100.00
53546;BME280;39432;51.902;10.844;2023-05-11T00:38:45;99404.53;;;15.38;100.00
53546;BME280;39432;51.902;10.844;2023-05-11T00:41:16;99397.59;;;14.92;100.00
53546;BME280;39432;51.902;10.844;2023-05-11T00:43:45;99397.03;;;14.95;100.00
53546;BME280;39432;51.902;10.844;2023-05-11T00:46:18;99397.97;;;14.57;100.00
53546;BME280;39432;51.902;10.844;2023-05-11T00:48:48;99400.03;;;14.70;100.00
53546;BME280;39432;51.902;10.844;2023-05-11T00:51:18;99405.53;;;14.99;100.00
53546;BME280;39432;51.902;10.844;2023-05-11T00:53:48;99397.09;;;14.90;100.00
53546;BME280;39432;51.902;10.844;2023-05-11T00:56:18;99398.81;;;14.81;100.00
53546;BME280;39432;51.902;10.844;2023-05-11T00:58:48;99392.47;;;14.57;100.00
53546;BME280;39432;51.902;10.844;2023-05-11T01:01:20;99388.94;;;14.80;100.00
53546;BME280;39432;51.902;10.844;2023-05-11T01:03:53;99392.28;;;14.72;100.00
53546;BME280;39432;51.902;10.844;2023-05-11T01:06:26;99390.44;;;14.67;100.00
53546;BME280;39432;51.902;10.844;2023-05-11T01:09:02;99386.84;;;14.96;100.00
53546;BME280;39432;51.902;10.844;2023-05-11T01:11:41;99391.22;;;14.97;100.00
53546;BME280;39432;51.902;10.844;2023-05-11T01:14:15;99378.47;;;14.77;100.00
53546;BME280;39432;51.902;10.844;2023-05-11T01:16:55;99383.19;;;14.47;100.00
53546;BME280;39432;51.902;10.844;2023-05-11T01:19:38;99390.25;;;14.83;100.00
53546;BME280;39432;51.902;10.844;2023-05-11T01:22:26;99381.44;;;14.57;100.00
53546;BME280;39432;51.902;10.844;2023-05-11T01:25:10;99387.09;;;14.70;100.00
53546;BME280;39432;51.902;10.844;2023-05-11T01:27:51;99391.25;;;14.68;100.00
53546;BME280;39432;51.902;10.844;2023-05-11T01:30:31;99392.06;;;14.68;100.00
53546;BME280;39432;51.902;10.844;2023-05-11T01:33:06;99396.50;;;14.64;100.00
53546;BME280;39432;51.902;10.844;2023-05-11T01:35:42;99385.69;;;14.73;100.00
53546;BME280;39432;51.902;10.844;2023-05-11T01:38:15;99384.22;;;14.81;100.00
53546;BME280;39432;51.902;10.844;2023-05-11T01:40:52;99395.22;;;14.57;100.00
53546;BME280;39432;51.902;10.844;2023-05-11T01:43:25;99385.88;;;14.53;100.00
53546;BME280;39432;51.902;10.844;2023-05-11T01:45:59;99394.75;;;14.39;100.00
53546;BME280;39432;51.902;10.844;2023-05-11T01:48:36;99397.03;;;14.32;100.00
53546;BME280;39432;51.902;10.844;2023-05-11T01:51:06;99397.13;;;14.17;100.00
53546;BME280;39432;51.902;10.844;2023-05-11T01:53:38;99410.25;;;13.96;100.00
53546;BME280;39432;51.902;10.844;2023-05-11T01:56:11;99408.81;;;13.49;100.00
53546;BME280;39432;51.902;10.844;2023-05-11T01:58:41;99435.56;;;14.32;100.00
53546;BME280;39432;51.902;10.844;2023-05-11T02:01:19;99435.53;;;14.37;100.00
53546;BME280;39432;51.902;10.844;2023-05-11T02:03:51;99426.91;;;14.83;100.00
53546;BME280;39432;51.902;10.844;2023-05-11T02:06:24;99415.00;;;14.59;100.00
53546;BME280;39432;51.902;10.844;2023-05-11T02:08:56;99408.16;;;14.85;100.00
53546;BME280;39432;51.902;10.844;2023-05-11T02:11:28;99409.84;;;14.52;100.00
53546;BME280;39432;51.902;10.844;2023-05-11T02:13:59;99407.59;;;14.83;100.00
53546;BME280;39432;51.902;10.844;2023-05-11T02:16:33;99408.47;;;15.32;100.00
53546;BME280;39432;51.902;10.844;2023-05-11T02:19:05;99395.00;;;15.30;100.00
53546;BME280;39432;51.902;10.844;2023-05-11T02:21:38;99386.31;;;14.65;100.00
53546;BME280;39432;51.902;10.844;2023-05-11T02:24:10;99402.16;;;14.10;100.00
53546;BME280;39432;51.902;10.844;2023-05-11T02:26:41;99410.75;;;14.37;100.00
53546;BME280;39432;51.902;10.844;2023-05-11T02:29:12;99412.59;;;14.13;100.00
53546;BME280;39432;51.902;10.844;2023-05-11T02:31:54;99419.38;;;13.86;100.00
53546;BME280;39432;51.902;10.844;2023-05-11T02:34:27;99427.97;;;14.19;100.00
53546;BME280;39432;51.902;10.844;2023-05-11T02:37:00;99443.13;;;13.57;100.00
53546;BME280;39432;51.902;10.844;2023-05-11T02:39:35;99451.88;;;13.79;100.00
53546;BME280;39432;51.902;10.844;2023-05-11T02:42:10;99449.66;;;13.81;100.00
53546;BME280;39432;51.902;10.844;2023-05-11T02:44:47;99450.34;;;14.02;100.00
53546;BME280;39432;51.902;10.844;2023-05-11T02:47:26;99447.69;;;14.31;100.00
53546;BME280;39432;51.902;10.844;2023-05-11T02:50:00;99434.03;;;14.55;100.00
53546;BME280;39432;51.902;10.844;2023-05-11T02:52:35;99426.97;;;14.39;100.00
53546;BME280;39432;51.902;10.844;2023-05-11T02:55:09;99431.34;;;14.06;100.00
53546;BME280;39432;51.902;10.844;2023-05-11T02:57:40;99433.31;;;13.95;100.00
53546;BME280;39432;51.902;10.844;2023-05-11T03:00:11;99438.06;;;13.84;100.00
53546;BME280;39432;51.902;10.844;2023-05-11T03:02:45;99439.41;;;13.27;100.00
53546;BME280;39432;51.902;10.844;2023-05-11T03:05:19;99454.19;;;13.47;100.00
53546;BME280;39432;51.902;10.844;2023-05-11T03:07:50;99461.84;;;13.55;100.00
53546;BME280;39432;51.902;10.844;2023-05-11T03:10:20;99469.53;;;13.63;100.00
53546;BME280;39432;51.902;10.844;2023-05-11T03:12:51;99478.75;;;13.92;100.00
53546;BME280;39432;51.902;10.844;2023-05-11T03:15:23;99462.16;;;14.52;100.00
53546;BME280;39432;51.902;10.844;2023-05-11T03:17:57;99448.06;;;14.59;100.00
53546;BME280;39432;51.902;10.844;2023-05-11T03:20:29;99431.66;;;14.38;100.00
53546;BME280;39432;51.902;10.844;2023-05-11T03:23:00;99432.59;;;14.29;100.00
53546;BME280;39432;51.902;10.844;2023-05-11T03:25:31;99421.16;;;14.51;100.00
53546;BME280;39432;51.902;10.844;2023-05-11T03:28:03;99418.91;;;14.13;100.00
53546;BME280;39432;51.902;10.844;2023-05-11T03:30:36;99428.84;;;14.09;100.00
53546;BME280;39432;51.902;10.844;2023-05-11T03:33:09;99429.47;;;14.40;100.00
53546;BME280;39432;51.902;10.844;2023-05-11T03:35:42;99431.47;;;13.85;100.00
53546;BME280;39432;51.902;10.844;2023-05-11T03:38:16;99435.66;;;14.17;100.00
53546;BME280;39432;51.902;10.844;2023-05-11T03:40:51;99436.25;;;14.53;100.00
53546;BME280;39432;51.902;10.844;2023-05-11T03:43:25;99429.28;;;14.27;100.00
53546;BME280;39432;51.902;10.844;2023-05-11T03:45:57;99424.16;;;14.10;100.00
53546;BME280;39432;51.902;10.844;2023-05-11T03:48:31;99428.69;;;13.95;100.00
53546;BME280;39432;51.902;10.844;2023-05-11T03:51:03;99431.06;;;14.07;100.00
53546;BME280;39432;51.902;10.844;2023-05-11T03:53:34;99438.00;;;13.94;100.00
53546;BME280;39432;51.902;10.844;2023-05-11T03:56:05;99438.59;;;13.91;100.00
53546;BME280;39432;51.902;10.844;2023-05-11T03:58:37;99434.75;;;13.87;100.00
53546;BME280;39432;51.902;10.844;2023-05-11T04:01:09;99444.00;;;14.07;100.00
53546;BME280;39432;51.902;10.844;2023-05-11T04:03:51;99435.22;;;14.00;100.00
53546;BME280;39432;51.902;10.844;2023-05-11T04:06:22;99435.44;;;14.13;100.00
53546;BME280;39432;51.902;10.844;2023-05-11T04:09:07;99444.91;;;13.92;100.00
53546;BME280;39432;51.902;10.844;2023-05-11T04:11:37;99443.38;;;14.15;100.00
53546;BME280;39432;51.902;10.844;2023-05-11T04:14:07;99447.88;;;14.45;100.00
53546;BME280;39432;51.902;10.844;2023-05-11T04:16:36;99443.44;;;14.49;100.00
53546;BME280;39432;51.902;10.844;2023-05-11T04:19:09;99437.59;;;14.56;100.00
53546;BME280;39432;51.902;10.844;2023-05-11T04:21:39;99436.78;;;14.16;100.00
53546;BME280;39432;51.902;10.844;2023-05-11T04:24:08;99445.19;;;13.95;100.00
53546;BME280;39432;51.902;10.844;2023-05-11T04:26:38;99453.56;;;13.65;100.00
53546;BME280;39432;51.902;10.844;2023-05-11T04:29:08;99454.44;;;13.50;100.00
53546;BME280;39432;51.902;10.844;2023-05-11T04:31:38;99473.22;;;13.92;100.00
53546;BME280;39432;51.902;10.844;2023-05-11T04:34:10;99479.25;;;13.94;100.00
53546;BME280;39432;51.902;10.844;2023-05-11T04:36:40;99477.53;;;14.14;100.00
53546;BME280;39432;51.902;10.844;2023-05-11T04:39:10;99475.91;;;14.08;100.00
53546;BME280;39432;51.902;10.844;2023-05-11T04:41:40;99479.78;;;14.07;100.00
53546;BME280;39432;51.902;10.844;2023-05-11T04:44:11;99476.00;;;14.37;100.00
53546;BME280;39432;51.902;10.844;2023-05-11T04:46:40;99462.56;;;14.30;100.00
53546;BME280;39432;51.902;10.844;2023-05-11T04:49:13;99466.53;;;14.09;100.00
53546;BME280;39432;51.902;10.844;2023-05-11T04:51:43;99463.81;;;14.04;100.00
53546;BME280;39432;51.902;10.844;2023-05-11T04:54:14;99469.22;;;14.24;100.00
53546;BME280;39432;51.902;10.844;2023-05-11T04:56:44;99463.94;;;14.28;100.00
53546;BME280;39432;51.902;10.844;2023-05-11T04:59:13;99464.72;;;14.33;100.00
53546;BME280;39432;51.902;10.844;2023-05-11T05:01:43;99470.19;;;14.38;100.00
53546;BME280;39432;51.902;10.844;2023-05-11T05:04:16;99455.84;;;14.46;100.00
53546;BME280;39432;51.902;10.844;2023-05-11T05:06:45;99457.59;;;14.32;100.00
53546;BME280;39432;51.902;10.844;2023-05-11T05:09:16;99454.88;;;14.66;100.00
53546;BME280;39432;51.902;10.844;2023-05-11T05:11:46;99464.50;;;14.69;100.00
53546;BME280;39432;51.902;10.844;2023-05-11T05:14:15;99451.00;;;13.79;100.00
53546;BME280;39432;51.902;10.844;2023-05-11T05:16:45;99466.47;;;14.24;100.00
53546;BME280;39432;51.902;10.844;2023-05-11T05:19:18;99477.34;;;14.39;100.00
53546;BME280;39432;51.902;10.844;2023-05-11T05:21:49;99477.97;;;14.70;100.00
53546;BME280;39432;51.902;10.844;2023-05-11T05:24:19;99479.75;;;14.56;100.00
53546;BME280;39432;51.902;10.844;2023-05-11T05:26:48;99478.56;;;14.23;100.00
53546;BME280;39432;51.902;10.844;2023-05-11T05:29:18;99484.31;;;14.27;100.00
53546;BME280;39432;51.902;10.844;2023-05-11T05:31:48;99485.06;;;14.37;100.00
53546;BME280;39432;51.902;10.844;2023-05-11T05:34:21;99480.44;;;14.28;100.00
53546;BME280;39432;51.902;10.844;2023-05-11T05:36:54;99487.84;;;14.32;100.00
53546;BME280;39432;51.902;10.844;2023-05-11T05:39:24;99493.22;;;14.58;100.00
53546;BME280;39432;51.902;10.844;2023-05-11T05:41:55;99486.19;;;14.75;100.00
53546;BME280;39432;51.902;10.844;2023-05-11T05:44:24;99477.41;;;15.02;100.00
53546;BME280;39432;51.902;10.844;2023-05-11T05:46:54;99477.31;;;14.49;100.00
53546;BME280;39432;51.902;10.844;2023-05-11T05:49:31;99471.72;;;14.60;100.00
53546;BME280;39432;51.902;10.844;2023-05-11T05:52:02;99488.28;;;14.55;100.00
53546;BME280;39432;51.902;10.844;2023-05-11T05:54:32;99495.16;;;14.13;100.00
53546;BME280;39432;51.902;10.844;2023-05-11T05:57:01;99493.56;;;14.02;100.00
53546;BME280;39432;51.902;10.844;2023-05-11T05:59:32;99508.72;;;14.38;100.00
53546;BME280;39432;51.902;10.844;2023-05-11T06:02:02;99509.06;;;14.32;100.00
53546;BME280;39432;51.902;10.844;2023-05-11T06:04:35;99511.66;;;14.13;100.00
53546;BME280;39432;51.902;10.844;2023-05-11T06:07:04;99520.16;;;14.11;100.00
53546;BME280;39432;51.902;10.844;2023-05-11T06:09:34;99528.72;;;14.05;100.00
53546;BME280;39432;51.902;10.844;2023-05-11T06:12:05;99529.63;;;14.39;100.00
53546;BME280;39432;51.902;10.844;2023-05-11T06:14:40;99531.75;;;14.63;100.00
53546;BME280;39432;51.902;10.844;2023-05-11T06:17:10;99525.84;;;14.35;100.00
53546;BME280;39432;51.902;10.844;2023-05-11T06:19:42;99525.34;;;14.72;100.00
53546;BME280;39432;51.902;10.844;2023-05-11T06:22:13;99521.66;;;14.82;100.00
53546;BME280;39432;51.902;10.844;2023-05-11T06:24:43;99512.34;;;14.78;100.00
53546;BME280;39432;51.902;10.844;2023-05-11T06:27:13;99507.53;;;14.60;100.00
53546;BME280;39432;51.902;10.844;2023-05-11T06:29:44;99511.59;;;14.67;100.00
53546;BME280;39432;51.902;10.844;2023-05-11T06:32:14;99515.22;;;14.63;100.00
53546;BME280;39432;51.902;10.844;2023-05-11T06:34:47;99507.81;;;14.58;100.00
53546;BME280;39432;51.902;10.844;2023-05-11T06:37:16;99517.34;;;14.71;100.00
53546;BME280;39432;51.902;10.844;2023-05-11T06:39:49;99499.72;;;14.72;100.00
53546;BME280;39432;51.902;10.844;2023-05-11T06:42:19;99499.84;;;14.57;100.00
53546;BME280;39432;51.902;10.844;2023-05-11T06:44:49;99504.69;;;14.70;100.00
53546;BME280;39432;51.902;10.844;2023-05-11T06:47:20;99500.34;;;14.64;100.00
53546;BME280;39432;51.902;10.844;2023-05-11T06:49:52;99503.41;;;14.91;100.00
53546;BME280;39432;51.902;10.844;2023-05-11T06:52:21;99499.19;;;14.70;100.00
53546;BME280;39432;51.902;10.844;2023-05-11T06:54:51;99506.47;;;14.90;100.00
53546;BME280;39432;51.902;10.844;2023-05-11T06:57:22;99500.66;;;14.91;100.00
53546;BME280;39432;51.902;10.844;2023-05-11T06:59:51;99502.59;;;15.20;100.00
53546;BME280;39432;51.902;10.844;2023-05-11T07:02:21;99500.56;;;14.72;100.00
53546;BME280;39432;51.902;10.844;2023-05-11T07:04:53;99495.22;;;14.81;100.00
53546;BME280;39432;51.902;10.844;2023-05-11T07:07:24;99501.84;;;14.80;100.00
53546;BME280;39432;51.902;10.844;2023-05-11T07:09:54;99505.72;;;14.79;100.00
53546;BME280;39432;51.902;10.844;2023-05-11T07:12:23;99505.91;;;14.54;100.00
53546;BME280;39432;51.902;10.844;2023-05-11T07:14:53;99509.81;;;14.42;100.00
53546;BME280;39432;51.902;10.844;2023-05-11T07:17:23;99519.25;;;14.75;100.00
53546;BME280;39432;51.902;10.844;2023-05-11T07:19:56;99519.16;;;14.86;100.00
53546;BME280;39432;51.902;10.844;2023-05-11T07:22:26;99517.97;;;14.63;100.00
53546;BME280;39432;51.902;10.844;2023-05-11T07:24:56;99519.56;;;14.69;100.00
53546;BME280;39432;51.902;10.844;2023-05-11T07:27:26;99522.13;;;14.55;100.00
53546;BME280;39432;51.902;10.844;2023-05-11T07:29:56;99532.00;;;15.00;100.00
53546;BME280;39432;51.902;10.844;2023-05-11T07:32:26;99516.06;;;15.21;100.00
53546;BME280;39432;51.902;10.844;2023-05-11T07:34:59;99512.44;;;15.26;100.00
53546;BME280;39432;51.902;10.844;2023-05-11T07:37:28;99504.25;;;14.58;100.00
53546;BME280;39432;51.902;10.844;2023-05-11T07:39:58;99520.31;;;14.80;100.00
53546;BME280;39432;51.902;10.844;2023-05-11T07:42:30;99527.06;;;14.97;100.00
53546;BME280;39432;51.902;10.844;2023-05-11T07:44:59;99524.16;;;15.13;100.00
53546;BME280;39432;51.902;10.844;2023-05-11T07:47:29;99523.13;;;15.33;100.00
53546;BME280;39432;51.902;10.844;2023-05-11T07:50:06;99517.59;;;15.09;100.00
53546;BME280;39432;51.902;10.844;2023-05-11T07:52:36;99507.03;;;15.16;100.00
53546;BME280;39432;51.902;10.844;2023-05-11T07:55:07;99511.59;;;15.01;100.00
53546;BME280;39432;51.902;10.844;2023-05-11T07:57:37;99510.09;;;14.85;100.00
53546;BME280;39432;51.902;10.844;2023-05-11T08:00:07;99508.34;;;15.23;100.00
53546;BME280;39432;51.902;10.844;2023-05-11T08:02:38;99499.63;;;14.43;100.00
53546;BME280;39432;51.902;10.844;2023-05-11T08:05:10;99516.19;;;14.77;100.00
53546;BME280;39432;51.902;10.844;2023-05-11T08:07:40;99520.66;;;14.73;100.00
53546;BME280;39432;51.902;10.844;2023-05-11T08:10:11;99532.47;;;15.08;100.00
53546;BME280;39432;51.902;10.844;2023-05-11T08:12:41;99541.28;;;15.10;100.00
53546;BME280;39432;51.902;10.844;2023-05-11T08:15:11;99536.75;;;15.24;100.00
53546;BME280;39432;51.902;10.844;2023-05-11T08:17:40;99528.69;;;14.98;100.00
53546;BME280;39432;51.902;10.844;2023-05-11T08:20:14;99529.09;;;15.16;100.00
53546;BME280;39432;51.902;10.844;2023-05-11T08:22:44;99517.44;;;15.24;100.00
53546;BME280;39432;51.902;10.844;2023-05-11T08:25:14;99512.44;;;15.26;100.00
53546;BME280;39432;51.902;10.844;2023-05-11T08:27:44;99514.66;;;15.00;100.00
53546;BME280;39432;51.902;10.844;2023-05-11T08:30:15;99516.94;;;15.22;100.00
53546;BME280;39432;51.902;10.844;2023-05-11T08:32:44;99521.69;;;14.77;100.00
53546;BME280;39432;51.902;10.844;2023-05-11T08:35:26;99535.00;;;15.33;100.00
53546;BME280;39432;51.902;10.844;2023-05-11T08:37:56;99528.22;;;15.49;100.00
53546;BME280;39432;51.902;10.844;2023-05-11T08:40:26;99523.66;;;15.64;100.00
53546;BME280;39432;51.902;10.844;2023-05-11T08:42:59;99512.66;;;15.59;100.00
53546;BME280;39432;51.902;10.844;2023-05-11T08:45:30;99513.19;;;15.37;100.00
53546;BME280;39432;51.902;10.844;2023-05-11T08:48:02;99524.81;;;14.99;100.00
53546;BME280;39432;51.902;10.844;2023-05-11T08:50:35;99531.41;;;14.69;100.00
53546;BME280;39432;51.902;10.844;2023-05-11T08:53:04;99548.75;;;14.70;100.00
53546;BME280;39432;51.902;10.844;2023-05-11T08:55:34;99553.94;;;14.76;100.00
53546;BME280;39432;51.902;10.844;2023-05-11T08:58:07;99566.38;;;14.74;100.00
53546;BME280;39432;51.902;10.844;2023-05-11T09:00:37;99565.16;;;14.90;100.00
53546;BME280;39432;51.902;10.844;2023-05-11T09:03:07;99572.50;;;14.61;100.00
53546;BME280;39432;51.902;10.844;2023-05-11T09:05:42;99578.22;;;15.09;100.00
53546;BME280;39432;51.902;10.844;2023-05-11T09:08:13;99583.25;;;15.01;100.00
53546;BME280;39432;51.902;10.844;2023-05-11T09:10:44;99575.34;;;15.24;100.00
53546;BME280;39432;51.902;10.844;2023-05-11T09:13:14;99569.91;;;15.14;100.00
53546;BME280;39432;51.902;10.844;2023-05-11T09:15:43;99566.06;;;15.10;100.00
53546;BME280;39432;51.902;10.844;2023-05-11T09:18:13;99564.94;;;15.11;100.00
53546;BME280;39432;51.902;10.844;2023-05-11T09:20:46;99563.03;;;14.77;100.00
53546;BME280;39432;51.902;10.844;2023-05-11T09:23:23;99570.03;;;14.59;100.00
53546;BME280;39432;51.902;10.844;2023-05-11T09:25:53;99580.09;;;15.13;100.00
53546;BME280;39432;51.902;10.844;2023-05-11T09:28:24;99565.56;;;15.08;100.00
53546;BME280;39432;51.902;10.844;2023-05-11T09:31:01;99575.44;;;14.74;100.00
53546;BME280;39432;51.902;10.844;2023-05-11T09:33:30;99581.81;;;14.70;100.00
53546;BME280;39432;51.902;10.844;2023-05-11T09:36:03;99580.25;;;15.27;100.00
53546;BME280;39432;51.902;10.844;2023-05-11T09:38:34;99576.88;;;15.35;100.00
53546;BME280;39432;51.902;10.844;2023-05-11T09:41:04;99562.84;;;15.61;100.00
53546;BME280;39432;51.902;10.844;2023-05-11T09:43:34;99561.72;;;15.67;100.00
53546;BME280;39432;51.902;10.844;2023-05-11T09:46:04;99555.19;;;15.52;100.00
53546;BME280;39432;51.902;10.844;2023-05-11T09:48:34;99550.56;;;15.48;100.00
53546;BME280;39432;51.902;10.844;2023-05-11T09:51:07;99548.59;;;16.01;100.00
53546;BME280;39432;51.902;10.844;2023-05-11T09:53:39;99528.72;;;16.04;100.00
53546;BME280;39432;51.902;10.844;2023-05-11T09:56:11;99525.38;;;16.45;100.00
53546;BME280;39432;51.902;10.844;2023-05-11T09:58:45;99506.13;;;16.40;100.00
53546;BME280;39432;51.902;10.844;2023-05-11T10:01:17;99505.63;;;15.95;100.00
53546;BME280;39432;51.902;10.844;2023-05-11T10:03:50;99501.38;;;16.03;100.00
53546;BME280;39432;51.902;10.844;2023-05-11T10:06:47;99503.13;;;15.75;100.00
53546;BME280;39432;51.902;10.844;2023-05-11T10:09:22;99502.16;;;16.84;100.00
53546;BME280;39432;51.902;10.844;2023-05-11T10:11:54;99499.09;;;16.85;100.00
53546;BME280;39432;51.902;10.844;2023-05-11T10:14:25;99477.69;;;17.24;100.00
53546;BME280;39432;51.902;10.844;2023-05-11T10:16:57;99455.28;;;17.25;100.00
53546;BME280;39432;51.902;10.844;2023-05-11T10:19:26;99448.09;;;17.38;100.00
53546;BME280;39432;51.902;10.844;2023-05-11T10:21:59;99426.66;;;17.30;100.00
53546;BME280;39432;51.902;10.844;2023-05-11T10:24:31;99422.97;;;16.93;100.00
53546;BME280;39432;51.902;10.844;2023-05-11T10:27:02;99431.75;;;16.95;100.00
53546;BME280;39432;51.902;10.844;2023-05-11T10:29:32;99434.09;;;16.55;100.00
53546;BME280;39432;51.902;10.844;2023-05-11T10:32:03;99442.16;;;16.71;100.00
53546;BME280;39432;51.902;10.844;2023-05-11T10:34:35;99441.56;;;16.36;100.00
53546;BME280;39432;51.902;10.844;2023-05-11T10:37:08;99439.59;;;16.55;100.00
53546;BME280;39432;51.902;10.844;2023-05-11T10:39:39;99434.78;;;16.80;100.00
53546;BME280;39432;51.902;10.844;2023-05-11T10:42:24;99429.31;;;16.94;100.00
53546;BME280;39432;51.902;10.844;2023-05-11T10:45:09;99421.41;;;16.87;100.00
53546;BME280;39432;51.902;10.844;2023-05-11T10:50:59;99417.03;;;17.00;100.00
53546;BME280;39432;51.902;10.844;2023-05-11T10:53:57;99421.88;;;16.75;100.00
53546;BME280;39432;51.902;10.844;2023-05-11T10:57:00;99433.25;;;17.20;100.00
53546;BME280;39432;51.902;10.844;2023-05-11T10:59:50;99420.53;;;17.33;100.00
53546;BME280;39432;51.902;10.844;2023-05-11T11:02:34;99404.63;;;16.97;100.00
53546;BME280;39432;51.902;10.844;2023-05-11T11:05:04;99411.97;;;16.55;100.00
53546;BME280;39432;51.902;10.844;2023-05-11T11:07:55;99432.88;;;16.62;100.00
53546;BME280;39432;51.902;10.844;2023-05-11T11:10:35;99438.69;;;16.79;100.00
53546;BME280;39432;51.902;10.844;2023-05-11T11:13:06;99432.84;;;17.27;100.00
53546;BME280;39432;51.902;10.844;2023-05-11T11:18:36;99424.34;;;16.77;100.00
53546;BME280;39432;51.902;10.844;2023-05-11T11:21:05;99411.03;;;16.79;100.00
53546;BME280;39432;51.902;10.844;2023-05-11T11:23:40;99418.22;;;16.80;100.00
53546;BME280;39432;51.902;10.844;2023-05-11T11:26:14;99411.50;;;17.13;100.00
53546;BME280;39432;51.902;10.844;2023-05-11T11:29:09;99414.72;;;16.74;100.00
53546;BME280;39432;51.902;10.844;2023-05-11T11:31:39;99416.25;;;17.27;100.00
53546;BME280;39432;51.902;10.844;2023-05-11T11:34:31;99415.41;;;17.40;100.00
53546;BME280;39432;51.902;10.844;2023-05-11T11:37:02;99415.00;;;17.19;100.00
53546;BME280;39432;51.902;10.844;2023-05-11T11:39:50;99422.97;;;17.07;100.00
53546;BME280;39432;51.902;10.844;2023-05-11T11:42:41;99433.25;;;17.34;100.00
53546;BME280;39432;51.902;10.844;2023-05-11T11:45:28;99410.59;;;17.59;100.00
53546;BME280;39432;51.902;10.844;2023-05-11T11:48:06;99416.34;;;17.49;100.00
53546;BME280;39432;51.902;10.844;2023-05-11T11:50:36;99414.72;;;17.48;100.00
53546;BME280;39432;51.902;10.844;2023-05-11T11:53:09;99404.97;;;17.64;100.00
53546;BME280;39432;51.902;10.844;2023-05-11T11:55:49;99405.16;;;17.82;100.00
53546;BME280;39432;51.902;10.844;2023-05-11T11:58:58;99392.22;;;17.63;100.00
53546;BME280;39432;51.902;10.844;2023-05-11T12:01:35;99391.03;;;17.28;100.00
53546;BME280;39432;51.902;10.844;2023-05-11T12:04:31;99400.97;;;17.43;100.00
53546;BME280;39432;51.902;10.844;2023-05-11T12:07:07;99392.25;;;17.77;100.00
53546;BME280;39432;51.902;10.844;2023-05-11T12:09:38;99398.72;;;17.45;100.00
53546;BME280;39432;51.902;10.844;2023-05-11T12:12:09;99385.69;;;16.91;100.00
53546;BME280;39432;51.902;10.844;2023-05-11T12:14:43;99403.09;;;17.46;100.00
53546;BME280;39432;51.902;10.844;2023-05-11T12:17:22;99409.06;;;17.26;100.00
53546;BME280;39432;51.902;10.844;2023-05-11T12:19:52;99401.06;;;17.38;100.00
53546;BME280;39432;51.902;10.844;2023-05-11T12:22:23;99410.31;;;17.47;100.00
53546;BME280;39432;51.902;10.844;2023-05-11T12:24:56;99410.44;;;18.28;100.00
53546;BME280;39432;51.902;10.844;2023-05-11T12:27:26;99407.00;;;17.59;100.00
53546;BME280;39432;51.902;10.844;2023-05-11T12:29:58;99415.72;;;17.25;100.00
53546;BME280;39432;51.902;10.844;2023-05-11T12:32:29;99430.78;;;17.74;100.00
53546;BME280;39432;51.902;10.844;2023-05-11T12:35:00;99412.28;;;18.55;100.00
53546;BME280;39432;51.902;10.844;2023-05-11T12:37:30;99390.09;;;18.10;100.00
53546;BME280;39432;51.902;10.844;2023-05-11T12:40:00;99384.31;;;18.65;100.00
53546;BME280;39432;51.902;10.844;2023-05-11T12:42:30;99387.41;;;17.83;100.00
53546;BME280;39432;51.902;10.844;2023-05-11T12:45:04;99376.84;;;18.43;100.00
53546;BME280;39432;51.902;10.844;2023-05-11T12:47:34;99368.72;;;18.25;100.00
53546;BME280;39432;51.902;10.844;2023-05-11T12:50:05;99378.72;;;17.76;100.00
53546;BME280;39432;51.902;10.844;2023-05-11T12:52:35;99382.53;;;17.25;100.00
53546;BME280;39432;51.902;10.844;2023-05-11T12:55:06;99386.94;;;17.26;100.00
53546;BME280;39432;51.902;10.844;2023-05-11T12:57:38;99390.94;;;18.56;100.00
53546;BME280;39432;51.902;10.844;2023-05-11T13:00:13;99364.50;;;18.50;100.00
53546;BME280;39432;51.902;10.844;2023-05-11T13:02:49;99360.25;;;17.85;100.00
53546;BME280;39432;51.902;10.844;2023-05-11T13:05:22;99364.69;;;18.08;100.00
53546;BME280;39432;51.902;10.844;2023-05-11T13:07:56;99360.84;;;18.94;100.00
53546;BME280;39432;51.902;10.844;2023-05-11T13:10:27;99358.88;;;17.96;100.00
53546;BME280;39432;51.902;10.844;2023-05-11T13:12:57;99369.34;;;18.44;100.00
53546;BME280;39432;51.902;10.844;2023-05-11T13:15:29;99356.16;;;17.69;100.00